Time;durP1;ratioP1;P1;durP2;ratioP2;P2;SDS_P1;SDS_P2;PMS_P1;PMS_P2;Temp;Humidity;BMP_temperature;BMP_pressure;BME280_temperature;BME280_humidity;BME280_pressure;Samples;Min_cycle;Max_cycle;Signal;HPM_P1;HPM_P2
2022/05/30 00:00:32;;;;;;;0.30;0.30;;;8.10;99.80;;;;;;5037487;28;20196;-71
2022/05/30 00:02:58;;;;;;;0.40;0.40;;;8.00;99.80;;;;;;5037371;28;20174;-69
2022/05/30 00:05:25;;;;;;;0.30;0.30;;;8.00;99.90;;;;;;5035986;28;20204;-71
2022/05/30 00:07:51;;;;;;;0.30;0.30;;;8.00;99.90;;;;;;5037378;28;20162;-69
2022/05/30 00:10:22;;;;;;;0.30;0.30;;;7.90;99.90;;;;;;5037228;28;20614;-71
2022/05/30 00:12:47;;;;;;;0.30;0.30;;;7.90;99.90;;;;;;5037064;28;20177;-69
2022/05/30 00:15:18;;;;;;;0.40;0.40;;;7.90;99.90;;;;;;5037261;28;20211;-68
2022/05/30 00:17:44;;;;;;;0.40;0.40;;;7.80;99.90;;;;;;5037364;28;20645;-71
2022/05/30 00:20:11;;;;;;;0.30;0.30;;;7.90;99.90;;;;;;5036890;28;20251;-70
2022/05/30 00:22:37;;;;;;;0.30;0.30;;;8.00;99.90;;;;;;5036806;28;20230;-71
2022/05/30 00:25:03;;;;;;;0.30;0.30;;;8.00;99.90;;;;;;5036877;28;20748;-70
2022/05/30 00:27:29;;;;;;;0.40;0.40;;;8.00;99.90;;;;;;5036990;28;20403;-69
2022/05/30 00:29:55;;;;;;;0.40;0.40;;;8.10;99.90;;;;;;5036840;28;20222;-71
2022/05/30 00:32:21;;;;;;;0.30;0.30;;;8.10;99.90;;;;;;5036911;28;20169;-70
2022/05/30 00:34:47;;;;;;;0.40;0.40;;;8.10;99.90;;;;;;5036887;28;20223;-71
2022/05/30 00:37:13;;;;;;;0.30;0.30;;;8.10;99.90;;;;;;5035632;28;20177;-71
2022/05/30 00:39:38;;;;;;;0.30;0.30;;;8.10;99.90;;;;;;5036884;28;20219;-71
2022/05/30 00:42:13;;;;;;;0.30;0.30;;;8.00;99.90;;;;;;5036436;28;20408;-70
2022/05/30 00:44:40;;;;;;;0.40;0.40;;;8.20;99.90;;;;;;5037028;28;20249;-69
2022/05/30 00:47:06;;;;;;;0.30;0.30;;;8.20;99.90;;;;;;5036597;28;20185;-69
2022/05/30 00:49:31;;;;;;;0.40;0.40;;;8.20;99.90;;;;;;5036696;28;20247;-70
2022/05/30 00:52:01;;;;;;;0.30;0.30;;;8.10;99.90;;;;;;5036403;28;20277;-69
2022/05/30 00:54:35;;;;;;;0.30;0.30;;;8.20;99.90;;;;;;5036547;28;20462;-70
2022/05/30 00:57:20;;;;;;;0.40;0.40;;;8.10;99.90;;;;;;5036900;28;20185;-71
2022/05/30 00:59:59;;;;;;;0.30;0.30;;;8.20;99.90;;;;;;5036452;28;20206;-70
2022/05/30 01:02:28;;;;;;;0.40;0.40;;;8.30;99.90;;;;;;5036189;28;20177;-69
2022/05/30 01:07:41;;;;;;;0.32;0.32;;;8.30;99.90;;;;;;5036719;28;20188;-70
2022/05/30 01:10:09;;;;;;;0.30;0.30;;;8.30;99.70;;;;;;5035083;28;20189;-71
2022/05/30 01:12:56;;;;;;;0.30;0.30;;;8.30;99.70;;;;;;5036091;28;20170;-71
2022/05/30 01:15:30;;;;;;;0.30;0.30;;;8.20;99.70;;;;;;5036298;28;20170;-71
2022/05/30 01:18:09;;;;;;;0.30;0.30;;;8.20;99.90;;;;;;5035906;28;20177;-69
2022/05/30 01:20:49;;;;;;;0.30;0.30;;;8.20;99.90;;;;;;5035887;28;20209;-69
2022/05/30 01:23:30;;;;;;;0.30;0.30;;;8.00;99.70;;;;;;5035880;28;20170;-70
2022/05/30 01:26:18;;;;;;;0.30;0.30;;;8.00;99.80;;;;;;5034441;28;20252;-69
2022/05/30 01:28:55;;;;;;;0.30;0.30;;;7.90;99.80;;;;;;5035834;28;20216;-70
2022/05/30 01:31:22;;;;;;;0.30;0.30;;;7.70;99.90;;;;;;5035753;28;20186;-70
2022/05/30 01:33:47;;;;;;;0.30;0.30;;;7.70;99.90;;;;;;5035555;28;20540;-69
2022/05/30 01:36:13;;;;;;;0.40;0.40;;;7.60;99.90;;;;;;5035871;28;20177;-69
2022/05/30 01:38:39;;;;;;;0.40;0.40;;;7.60;99.90;;;;;;5036031;28;20187;-70
2022/05/30 01:41:05;;;;;;;0.30;0.30;;;7.60;99.90;;;;;;5035589;28;20206;-70
2022/05/30 01:43:32;;;;;;;0.30;0.30;;;7.50;99.90;;;;;;5035422;28;20412;-69
2022/05/30 01:46:04;;;;;;;0.30;0.30;;;7.40;99.70;;;;;;5035477;28;20209;-70
2022/05/30 01:48:30;;;;;;;0.40;0.40;;;7.40;99.70;;;;;;5035726;28;20529;-70
2022/05/30 01:50:57;;;;;;;0.30;0.30;;;7.20;99.90;;;;;;5035529;28;20275;-69
2022/05/30 01:53:23;;;;;;;0.40;0.40;;;7.20;99.90;;;;;;5035310;28;20168;-70
2022/05/30 01:55:48;;;;;;;0.30;0.30;;;7.10;99.90;;;;;;5035486;28;20210;-70
2022/05/30 01:58:14;;;;;;;0.40;0.40;;;7.10;99.90;;;;;;5035309;28;20182;-69
2022/05/30 02:00:40;;;;;;;0.30;0.30;;;7.10;99.90;;;;;;5035202;28;20653;-69
2022/05/30 02:03:05;;;;;;;0.30;0.30;;;7.10;99.80;;;;;;5034990;28;20184;-69
2022/05/30 02:05:33;;;;;;;0.50;0.50;;;7.00;99.70;;;;;;5035210;28;20201;-70
2022/05/30 02:07:59;;;;;;;0.40;0.40;;;6.90;99.40;;;;;;5035032;28;20200;-70
2022/05/30 02:10:25;;;;;;;0.40;0.40;;;6.80;99.60;;;;;;5034881;28;20439;-69
2022/05/30 02:12:50;;;;;;;0.33;0.33;;;6.80;99.60;;;;;;5034919;28;20207;-69
2022/05/30 02:15:16;;;;;;;0.30;0.30;;;6.80;99.70;;;;;;5035020;28;20419;-68
2022/05/30 02:17:42;;;;;;;0.40;0.40;;;6.70;99.70;;;;;;5035040;28;20419;-70
2022/05/30 02:20:08;;;;;;;0.30;0.30;;;6.70;99.70;;;;;;5034363;28;20665;-70
2022/05/30 02:22:34;;;;;;;0.30;0.30;;;6.80;99.50;;;;;;5033452;28;20218;-69
2022/05/30 02:25:00;;;;;;;0.40;0.40;;;6.70;99.40;;;;;;5034722;28;20675;-71
2022/05/30 02:27:26;;;;;;;0.40;0.40;;;6.70;99.50;;;;;;5034795;28;20169;-71
2022/05/30 02:29:52;;;;;;;0.37;0.37;;;6.60;99.20;;;;;;5034703;28;20175;-68
2022/05/30 02:32:18;;;;;;;0.30;0.30;;;6.60;99.00;;;;;;5034484;28;20407;-68
2022/05/30 02:37:28;;;;;;;0.32;0.32;;;6.70;99.20;;;;;;5035034;28;20637;-69
2022/05/30 02:39:54;;;;;;;0.40;0.40;;;6.70;99.00;;;;;;5034615;28;20290;-69
2022/05/30 02:42:19;;;;;;;0.33;0.33;;;6.60;99.00;;;;;;5034330;28;20229;-71
2022/05/30 02:44:45;;;;;;;0.33;0.33;;;6.70;98.90;;;;;;5034474;28;20198;-69
2022/05/30 02:47:11;;;;;;;0.30;0.30;;;6.50;98.70;;;;;;5034477;28;20177;-70
2022/05/30 02:49:37;;;;;;;0.40;0.40;;;6.60;98.80;;;;;;5034298;28;20204;-69
2022/05/30 02:52:04;;;;;;;0.30;0.30;;;6.50;98.80;;;;;;5033965;28;20801;-70
2022/05/30 02:54:30;;;;;;;0.60;0.60;;;6.50;98.40;;;;;;5034542;28;20198;-70
2022/05/30 02:56:58;;;;;;;0.40;0.40;;;6.50;98.40;;;;;;5034243;28;20255;-71
2022/05/30 02:59:25;;;;;;;0.40;0.40;;;6.50;98.50;;;;;;5034029;28;20628;-69
2022/05/30 03:01:52;;;;;;;0.30;0.30;;;6.40;98.30;;;;;;5033924;28;20616;-69
2022/05/30 03:04:19;;;;;;;0.30;0.30;;;6.40;98.20;;;;;;5032545;28;20203;-70
2022/05/30 03:06:45;;;;;;;0.30;0.30;;;6.40;98.10;;;;;;5034202;28;20170;-69
2022/05/30 03:09:12;;;;;;;0.40;0.40;;;6.30;98.30;;;;;;5033997;28;20639;-70
2022/05/30 03:11:38;;;;;;;0.38;0.38;;;6.20;98.40;;;;;;5033891;28;20257;-69
2022/05/30 03:14:04;;;;;;;0.40;0.40;;;6.30;98.10;;;;;;5033930;28;20171;-70
2022/05/30 03:16:30;;;;;;;0.40;0.40;;;6.30;98.00;;;;;;5033932;28;20398;-71
2022/05/30 03:18:56;;;;;;;0.40;0.40;;;6.30;97.90;;;;;;5033632;28;20657;-69
2022/05/30 03:21:22;;;;;;;0.38;0.38;;;6.20;98.00;;;;;;5033817;28;20197;-71
2022/05/30 03:23:48;;;;;;;0.40;0.40;;;6.20;97.90;;;;;;5033539;28;20178;-71
2022/05/30 03:26:16;;;;;;;0.40;0.40;;;6.10;97.90;;;;;;5034028;28;20464;-71
2022/05/30 03:28:42;;;;;;;0.40;0.40;;;6.10;97.90;;;;;;5033814;28;20170;-71
2022/05/30 03:31:08;;;;;;;0.40;0.40;;;6.10;97.50;;;;;;5033717;28;20614;-69
2022/05/30 03:33:35;;;;;;;0.40;0.40;;;6.10;97.50;;;;;;5032896;28;20167;-71
2022/05/30 03:36:02;;;;;;;0.32;0.32;;;6.10;97.40;;;;;;5033640;28;20645;-71
2022/05/30 03:38:27;;;;;;;0.40;0.40;;;6.10;97.60;;;;;;5033647;28;20222;-69
2022/05/30 03:40:53;;;;;;;0.30;0.30;;;6.00;96.90;;;;;;5033647;28;20203;-69
2022/05/30 03:43:18;;;;;;;0.40;0.40;;;6.00;96.10;;;;;;5033277;28;20226;-70
2022/05/30 03:45:45;;;;;;;0.40;0.40;;;6.00;96.10;;;;;;5033357;28;20203;-71
2022/05/30 03:48:14;;;;;;;0.30;0.30;;;6.10;96.60;;;;;;5033460;28;20198;-68
2022/05/30 03:50:41;;;;;;;1.60;1.58;;;6.10;96.70;;;;;;5033303;28;20238;-69
2022/05/30 03:53:07;;;;;;;0.40;0.40;;;6.00;96.70;;;;;;5033219;28;20175;-69
2022/05/30 03:55:39;;;;;;;0.40;0.40;;;6.10;96.90;;;;;;5033535;28;20598;-69
2022/05/30 03:58:07;;;;;;;0.40;0.40;;;6.10;96.90;;;;;;5033531;28;20175;-70
2022/05/30 04:00:33;;;;;;;0.40;0.40;;;6.10;97.00;;;;;;5033263;28;20228;-71
2022/05/30 04:03:00;;;;;;;0.30;0.30;;;6.00;96.80;;;;;;5033324;28;20581;-70
2022/05/30 04:05:26;;;;;;;0.40;0.40;;;6.00;96.50;;;;;;5033438;28;20584;-71
2022/05/30 04:07:52;;;;;;;0.40;0.40;;;6.00;96.80;;;;;;5033397;28;20163;-70
2022/05/30 04:10:18;;;;;;;0.32;0.32;;;6.10;96.90;;;;;;5033337;28;20184;-71
2022/05/30 04:12:43;;;;;;;0.40;0.40;;;6.10;96.60;;;;;;5033092;28;20591;-70
2022/05/30 04:15:16;;;;;;;0.30;0.30;;;6.10;96.60;;;;;;5033640;28;20175;-71
2022/05/30 04:17:42;;;;;;;0.40;0.40;;;6.10;96.30;;;;;;5033526;28;20176;-69
2022/05/30 04:20:08;;;;;;;0.30;0.30;;;6.10;96.40;;;;;;5033067;28;20305;-70
2022/05/30 04:22:34;;;;;;;0.40;0.40;;;6.10;96.40;;;;;;5033095;28;20168;-70
2022/05/30 04:25:00;;;;;;;0.40;0.40;;;6.20;96.50;;;;;;5033256;28;20648;-72
2022/05/30 04:27:26;;;;;;;0.40;0.40;;;6.10;96.30;;;;;;5032275;28;20903;-71
2022/05/30 04:29:51;;;;;;;0.40;0.40;;;6.10;96.40;;;;;;5033013;28;20399;-70
2022/05/30 04:32:17;;;;;;;0.40;0.40;;;6.10;96.70;;;;;;5032925;28;20168;-70
2022/05/30 04:34:44;;;;;;;0.40;0.40;;;6.10;96.70;;;;;;5033259;28;20411;-70
2022/05/30 04:37:10;;;;;;;0.30;0.30;;;6.40;97.30;;;;;;5031883;28;20176;-71
2022/05/30 04:39:36;;;;;;;0.30;0.30;;;6.80;97.10;;;;;;5033161;28;20231;-70
2022/05/30 04:42:02;;;;;;;0.30;0.30;;;7.20;96.00;;;;;;5032678;28;20197;-70
2022/05/30 04:44:28;;;;;;;0.40;0.40;;;7.60;95.30;;;;;;5035492;28;20653;-70
2022/05/30 04:46:55;;;;;;;0.40;0.40;;;7.90;94.40;;;;;;5036711;28;20175;-69
2022/05/30 04:49:22;;;;;;;0.30;0.30;;;8.10;93.50;;;;;;5036671;28;20178;-68
2022/05/30 04:51:49;;;;;;;0.40;0.40;;;8.40;93.30;;;;;;5036457;28;20776;-69
2022/05/30 04:54:14;;;;;;;0.30;0.30;;;8.60;92.80;;;;;;5036428;28;20177;-71
2022/05/30 04:56:40;;;;;;;0.30;0.30;;;9.20;92.10;;;;;;5036617;28;20257;-71
2022/05/30 04:59:07;;;;;;;0.40;0.40;;;9.90;91.10;;;;;;5036431;28;20194;-69
2022/05/30 05:01:33;;;;;;;0.30;0.30;;;10.70;89.30;;;;;;5035246;28;20191;-69
2022/05/30 05:03:59;;;;;;;0.30;0.30;;;11.40;88.00;;;;;;5036094;28;20511;-69
2022/05/30 05:06:25;;;;;;;0.30;0.30;;;12.20;85.10;;;;;;5036132;28;20411;-70
2022/05/30 05:08:51;;;;;;;0.30;0.30;;;13.00;81.00;;;;;;5035215;28;20416;-68
2022/05/30 05:11:25;;;;;;;0.30;0.30;;;13.30;76.60;;;;;;5036023;28;20426;-71
2022/05/30 05:13:52;;;;;;;0.30;0.30;;;13.40;76.60;;;;;;5034939;28;20173;-68
2022/05/30 05:16:20;;;;;;;0.30;0.30;;;13.00;77.00;;;;;;5036171;28;20407;-70
2022/05/30 05:18:46;;;;;;;0.30;0.30;;;12.70;76.00;;;;;;5034708;28;20414;-71
2022/05/30 05:21:22;;;;;;;0.30;0.30;;;12.60;74.50;;;;;;5036129;28;20438;-70
2022/05/30 05:23:48;;;;;;;0.40;0.40;;;12.60;76.90;;;;;;5035711;28;20400;-70
2022/05/30 05:26:15;;;;;;;0.30;0.30;;;12.60;73.50;;;;;;5036067;28;20804;-69
2022/05/30 05:28:40;;;;;;;0.30;0.30;;;12.50;75.60;;;;;;5035943;28;20854;-68
2022/05/30 05:31:13;;;;;;;0.40;0.40;;;12.50;76.20;;;;;;5034586;28;20450;-70
2022/05/30 05:33:39;;;;;;;0.30;0.30;;;12.50;77.50;;;;;;5035398;28;20170;-70
2022/05/30 05:36:05;;;;;;;0.30;0.30;;;12.40;79.60;;;;;;5034198;28;20408;-72
2022/05/30 05:38:30;;;;;;;0.60;0.60;;;12.30;77.50;;;;;;5033948;28;20179;-70
2022/05/30 05:40:56;;;;;;;0.60;0.60;;;12.40;77.40;;;;;;5035326;28;20436;-72
2022/05/30 05:43:22;;;;;;;0.50;0.50;;;12.60;77.30;;;;;;5033624;28;20575;-73
2022/05/30 05:45:48;;;;;;;0.50;0.50;;;12.80;75.60;;;;;;5035537;28;20453;-70
2022/05/30 05:48:14;;;;;;;0.30;0.30;;;12.90;74.10;;;;;;5035377;28;20402;-68
2022/05/30 05:50:42;;;;;;;0.30;0.30;;;12.90;74.00;;;;;;5035268;28;20461;-69
2022/05/30 05:53:09;;;;;;;0.30;0.30;;;12.90;74.80;;;;;;5034901;28;20403;-70
2022/05/30 05:55:35;;;;;;;0.30;0.30;;;12.90;75.60;;;;;;5034690;28;20952;-70
2022/05/30 05:58:01;;;;;;;0.73;0.73;;;12.90;73.90;;;;;;5035345;28;20404;-69
2022/05/30 06:00:27;;;;;;;1.13;1.13;;;12.80;71.00;;;;;;5035159;28;20610;-71
2022/05/30 06:02:52;;;;;;;0.33;0.33;;;12.80;72.20;;;;;;5035022;28;20495;-68
2022/05/30 06:05:18;;;;;;;0.30;0.30;;;12.90;74.30;;;;;;5034876;28;20543;-71
2022/05/30 06:07:45;;;;;;;0.40;0.40;;;12.90;70.30;;;;;;5035124;28;20660;-70
2022/05/30 06:10:13;;;;;;;0.30;0.30;;;13.40;66.50;;;;;;5035244;28;20178;-73
2022/05/30 06:12:44;;;;;;;0.30;0.30;;;14.00;72.00;;;;;;5034843;28;20921;-68
2022/05/30 06:15:12;;;;;;;0.30;0.30;;;14.50;71.30;;;;;;5035137;28;20405;-68
2022/05/30 06:17:42;;;;;;;0.30;0.30;;;14.80;68.90;;;;;;5035061;28;20408;-73
2022/05/30 06:20:10;;;;;;;0.30;0.30;;;15.30;68.30;;;;;;5034626;28;20452;-70
2022/05/30 06:22:35;;;;;;;0.30;0.30;;;16.00;68.70;;;;;;5033274;28;20513;-69
2022/05/30 06:25:01;;;;;;;0.30;0.30;;;16.80;66.90;;;;;;5034841;28;20536;-71
2022/05/30 06:27:27;;;;;;;0.60;0.60;;;17.40;64.40;;;;;;5034570;28;20171;-72
2022/05/30 06:29:53;;;;;;;0.40;0.40;;;18.00;63.50;;;;;;5033497;28;20178;-72
2022/05/30 06:32:18;;;;;;;0.30;0.30;;;18.70;53.90;;;;;;5034439;28;20169;-72
2022/05/30 06:34:44;;;;;;;0.30;0.30;;;19.90;49.70;;;;;;5034402;28;20582;-73
2022/05/30 06:37:14;;;;;;;0.30;0.30;;;21.50;46.50;;;;;;5034724;28;20174;-72
2022/05/30 06:39:40;;;;;;;0.30;0.30;;;22.60;37.00;;;;;;5034397;28;20171;-71
2022/05/30 06:42:10;;;;;;;0.30;0.30;;;23.40;36.30;;;;;;5034174;28;20444;-73
2022/05/30 06:44:37;;;;;;;0.30;0.30;;;25.10;37.60;;;;;;5034435;28;20441;-72
2022/05/30 06:47:04;;;;;;;0.30;0.30;;;26.90;35.60;;;;;;5034327;28;20397;-73
2022/05/30 06:49:30;;;;;;;0.30;0.30;;;27.80;31.20;;;;;;5034163;28;20398;-70
2022/05/30 06:51:55;;;;;;;0.30;0.30;;;28.10;30.20;;;;;;5034160;28;20423;-72
2022/05/30 06:54:21;;;;;;;0.30;0.30;;;27.90;26.60;;;;;;5034003;28;20175;-72
2022/05/30 06:59:32;;;;;;;0.30;0.30;;;28.90;25.80;;;;;;5034231;28;20182;-72
2022/05/30 07:02:02;;;;;;;0.47;0.47;;;28.50;26.30;;;;;;5034007;28;20523;-72
2022/05/30 07:04:33;;;;;;;0.40;0.40;;;29.10;26.90;;;;;;5033764;28;20464;-72
2022/05/30 07:07:03;;;;;;;0.30;0.30;;;28.70;27.10;;;;;;5033202;28;20416;-72
2022/05/30 07:09:29;;;;;;;0.30;0.30;;;28.80;26.40;;;;;;5034237;28;20762;-74
2022/05/30 07:11:55;;;;;;;0.30;0.30;;;28.90;25.90;;;;;;5033819;28;20429;-71
2022/05/30 07:14:21;;;;;;;0.30;0.30;;;28.90;25.30;;;;;;5033743;28;20410;-71
2022/05/30 07:16:46;;;;;;;0.67;0.50;;;28.00;26.10;;;;;;5034074;28;20177;-70
2022/05/30 07:19:12;;;;;;;0.30;0.30;;;27.70;27.60;;;;;;5033738;28;20187;-72
2022/05/30 07:21:39;;;;;;;0.30;0.30;;;27.40;29.10;;;;;;5033818;28;20262;-72
2022/05/30 07:24:05;;;;;;;0.30;0.30;;;28.10;27.60;;;;;;5033677;28;20202;-70
2022/05/30 07:26:31;;;;;;;0.30;0.30;;;28.30;27.50;;;;;;5033542;28;20496;-72
2022/05/30 07:28:56;;;;;;;0.30;0.30;;;27.80;26.60;;;;;;5033678;28;20441;-73
2022/05/30 07:31:28;;;;;;;0.40;0.40;;;27.70;27.80;;;;;;5033758;28;20183;-72
2022/05/30 07:33:54;;;;;;;0.30;0.30;;;28.80;27.50;;;;;;5033617;28;20174;-72
2022/05/30 07:36:24;;;;;;;0.30;0.30;;;30.10;25.70;;;;;;5033727;28;20401;-74
2022/05/30 07:38:50;;;;;;;0.30;0.30;;;31.10;25.10;;;;;;5033480;28;20175;-71
2022/05/30 07:41:15;;;;;;;0.30;0.30;;;31.80;25.00;;;;;;5033428;28;20452;-72
2022/05/30 07:43:41;;;;;;;0.30;0.30;;;32.10;23.60;;;;;;5033125;28;21010;-73
2022/05/30 07:46:09;;;;;;;0.30;0.30;;;31.40;23.30;;;;;;5033433;28;20674;-72
2022/05/30 07:48:36;;;;;;;0.30;0.30;;;30.80;23.80;;;;;;5033486;28;20171;-73
2022/05/30 07:51:03;;;;;;;0.30;0.30;;;30.90;26.30;;;;;;5033393;28;20509;-73
2022/05/30 07:53:29;;;;;;;0.40;0.40;;;31.60;25.50;;;;;;5031949;28;20918;-72
2022/05/30 07:55:57;;;;;;;0.40;0.30;;;31.40;24.30;;;;;;5033496;28;20464;-72
2022/05/30 07:58:22;;;;;;;0.30;0.30;;;32.30;24.60;;;;;;5033434;28;20171;-73
2022/05/30 08:00:52;;;;;;;0.30;0.30;;;33.30;23.30;;;;;;5033382;28;20432;-71
2022/05/30 08:03:18;;;;;;;0.30;0.30;;;34.00;23.40;;;;;;5033175;28;20171;-70
2022/05/30 08:05:45;;;;;;;0.30;0.30;;;33.30;22.00;;;;;;5033174;28;20499;-69
2022/05/30 08:08:11;;;;;;;0.30;0.30;;;32.00;22.20;;;;;;5033650;28;20419;-70
2022/05/30 08:10:37;;;;;;;0.53;0.53;;;31.60;23.30;;;;;;5033186;28;20479;-70
2022/05/30 08:13:04;;;;;;;0.30;0.30;;;31.90;23.20;;;;;;5032996;28;20409;-71
2022/05/30 08:15:30;;;;;;;0.30;0.30;;;31.30;23.80;;;;;;5033292;28;20481;-69
2022/05/30 08:17:57;;;;;;;0.40;0.30;;;30.60;23.70;;;;;;5033667;28;20409;-70
2022/05/30 08:20:24;;;;;;;0.40;0.40;;;30.10;25.20;;;;;;5036835;28;20441;-70
2022/05/30 08:22:50;;;;;;;0.87;0.87;;;30.00;24.40;;;;;;5036862;28;20397;-70
2022/05/30 08:25:17;;;;;;;0.40;0.40;;;29.30;24.70;;;;;;5036925;28;20503;-69
2022/05/30 08:27:45;;;;;;;0.30;0.30;;;29.10;25.70;;;;;;5035803;28;20290;-68
2022/05/30 08:30:12;;;;;;;0.63;0.50;;;27.90;25.10;;;;;;5035991;28;20425;-68
2022/05/30 08:32:41;;;;;;;0.40;0.40;;;27.20;26.30;;;;;;5036689;28;20405;-70
2022/05/30 08:35:09;;;;;;;0.47;0.47;;;27.30;26.00;;;;;;5035762;28;20409;-69
2022/05/30 08:37:37;;;;;;;0.30;0.30;;;28.20;26.60;;;;;;5036994;28;20405;-69
2022/05/30 08:42:56;;;;;;;0.30;0.30;;;27.70;25.70;;;;;;5036632;28;20401;-70
2022/05/30 08:45:23;;;;;;;0.30;0.30;;;26.00;27.20;;;;;;5036690;28;20449;-69
2022/05/30 08:47:57;;;;;;;0.30;0.30;;;25.00;28.20;;;;;;5036786;28;20503;-69
2022/05/30 08:50:47;;;;;;;0.30;0.30;;;25.10;28.70;;;;;;5035385;28;20437;-70
2022/05/30 08:53:34;;;;;;;0.30;0.30;;;26.60;27.90;;;;;;5035137;28;20410;-69
2022/05/30 08:56:17;;;;;;;1.07;0.87;;;28.50;27.50;;;;;;5036591;28;20416;-70
2022/05/30 08:59:01;;;;;;;0.30;0.30;;;28.40;26.20;;;;;;5036376;28;20463;-70
2022/05/30 09:01:40;;;;;;;0.83;0.83;;;27.40;26.50;;;;;;5036346;28;20499;-70
2022/05/30 09:04:18;;;;;;;0.30;0.30;;;26.30;29.60;;;;;;5036287;28;20412;-70
2022/05/30 09:06:51;;;;;;;0.37;0.37;;;25.70;28.60;;;;;;5036433;28;20493;-69
2022/05/30 09:09:34;;;;;;;0.57;0.57;;;25.30;29.60;;;;;;5036284;28;20436;-69
2022/05/30 09:12:08;;;;;;;0.30;0.30;;;24.40;28.50;;;;;;5036114;28;20451;-68
2022/05/30 09:14:39;;;;;;;0.30;0.30;;;23.40;29.00;;;;;;5036142;28;20396;-69
2022/05/30 09:17:13;;;;;;;0.30;0.30;;;22.20;30.20;;;;;;5036222;28;20410;-71
2022/05/30 09:19:39;;;;;;;0.30;0.30;;;20.70;33.00;;;;;;5036159;28;20510;-72
2022/05/30 09:22:08;;;;;;;0.43;0.43;;;20.50;34.20;;;;;;5035707;28;20437;-70
2022/05/30 09:24:35;;;;;;;0.30;0.30;;;20.00;34.70;;;;;;5036022;28;20452;-71
2022/05/30 09:27:03;;;;;;;0.30;0.30;;;20.20;40.40;;;;;;5035517;28;20933;-72
2022/05/30 09:29:36;;;;;;;1.67;1.67;;;21.70;39.70;;;;;;5034628;28;20406;-71
2022/05/30 09:32:08;;;;;;;0.40;0.40;;;22.40;35.40;;;;;;5035532;28;20436;-72
2022/05/30 09:34:47;;;;;;;0.30;0.30;;;23.20;35.80;;;;;;5034716;28;20851;-71
2022/05/30 09:37:33;;;;;;;0.30;0.30;;;24.30;33.60;;;;;;5035966;28;20408;-71
2022/05/30 09:39:59;;;;;;;0.30;0.30;;;25.00;31.80;;;;;;5035937;28;20375;-72
2022/05/30 09:42:26;;;;;;;0.40;0.40;;;24.70;31.60;;;;;;5035378;28;20931;-73
2022/05/30 09:44:56;;;;;;;0.40;0.40;;;24.70;34.30;;;;;;5035555;28;20199;-70
2022/05/30 09:47:22;;;;;;;0.30;0.30;;;25.60;32.20;;;;;;5035619;28;20416;-72
2022/05/30 09:49:53;;;;;;;0.30;0.30;;;25.40;32.40;;;;;;5035675;28;20453;-72
2022/05/30 09:52:29;;;;;;;0.50;0.50;;;25.00;32.40;;;;;;5035244;28;20412;-72
2022/05/30 09:54:55;;;;;;;0.40;0.40;;;24.30;33.40;;;;;;5035462;28;20412;-73
2022/05/30 09:57:28;;;;;;;0.30;0.30;;;24.10;32.70;;;;;;5034426;28;20408;-71
2022/05/30 09:59:58;;;;;;;0.30;0.30;;;23.50;34.60;;;;;;5035371;28;20894;-71
2022/05/30 10:02:32;;;;;;;0.30;0.30;;;22.50;34.20;;;;;;5035160;28;20380;-71
2022/05/30 10:05:22;;;;;;;0.33;0.33;;;22.00;36.50;;;;;;5034275;28;20463;-71
2022/05/30 10:07:55;;;;;;;0.30;0.30;;;21.70;37.00;;;;;;5035196;28;20399;-73
2022/05/30 10:10:37;;;;;;;0.30;0.30;;;20.90;39.10;;;;;;5034537;28;20423;-72
2022/05/30 10:13:06;;;;;;;0.30;0.30;;;20.60;39.00;;;;;;5034881;28;20405;-70
2022/05/30 10:15:33;;;;;;;0.30;0.30;;;20.10;38.00;;;;;;5034002;28;20470;-70
2022/05/30 10:18:13;;;;;;;0.30;0.30;;;20.20;40.30;;;;;;5035151;28;20441;-71
2022/05/30 10:21:06;;;;;;;0.30;0.30;;;20.70;41.30;;;;;;5034872;28;20544;-70
2022/05/30 10:29:35;;;;;;;0.30;0.30;;;19.80;40.10;;;;;;5034963;28;20425;-70
2022/05/30 10:32:17;;;;;;;0.30;0.30;;;19.60;41.20;;;;;;5034428;28;20428;-71
2022/05/30 10:34:43;;;;;;;0.40;0.40;;;19.70;41.40;;;;;;5034828;28;20409;-70
2022/05/30 10:37:38;;;;;;;0.30;0.30;;;20.00;42.70;;;;;;5034804;28;20495;-71
2022/05/30 10:40:36;;;;;;;0.30;0.30;;;19.90;41.60;;;;;;5034599;28;20197;-71
2022/05/30 10:43:07;;;;;;;1.27;1.27;;;19.90;40.90;;;;;;5034341;28;20412;-69
2022/05/30 10:45:57;;;;;;;0.30;0.30;;;19.70;43.50;;;;;;5034569;28;20444;-71
2022/05/30 10:48:33;;;;;;;0.30;0.30;;;20.00;42.90;;;;;;5034048;28;20399;-71
2022/05/30 10:51:28;;;;;;;0.30;0.30;;;19.90;41.90;;;;;;5033873;28;20785;-70
2022/05/30 10:54:18;;;;;;;0.30;0.30;;;19.90;43.70;;;;;;5034264;28;20409;-71
2022/05/30 10:56:52;;;;;;;0.33;0.33;;;20.20;43.30;;;;;;5033706;28;20894;-71
2022/05/30 10:59:45;;;;;;;0.30;0.30;;;20.40;41.70;;;;;;5034613;28;20396;-71
2022/05/30 11:02:48;;;;;;;0.30;0.30;;;20.10;42.00;;;;;;5034006;28;20393;-70
2022/05/30 11:05:21;;;;;;;0.30;0.30;;;20.20;41.80;;;;;;5034014;28;20459;-71
2022/05/30 11:08:11;;;;;;;0.30;0.30;;;20.50;40.10;;;;;;5034245;28;20829;-70
2022/05/30 11:10:46;;;;;;;0.50;0.50;;;20.50;39.90;;;;;;5034106;28;20424;-70
2022/05/30 11:13:32;;;;;;;0.30;0.30;;;20.80;39.80;;;;;;5033747;28;20488;-70
2022/05/30 11:16:22;;;;;;;0.30;0.30;;;20.20;39.30;;;;;;5033854;28;20415;-69
2022/05/30 11:19:27;;;;;;;0.60;0.60;;;19.80;39.80;;;;;;5033906;28;20891;-70
2022/05/30 11:22:09;;;;;;;0.30;0.30;;;19.30;40.40;;;;;;5033938;28;20477;-70
2022/05/30 11:24:37;;;;;;;0.30;0.30;;;19.20;43.80;;;;;;5033670;28;20451;-71
2022/05/30 11:27:39;;;;;;;0.30;0.30;;;18.60;42.70;;;;;;5033843;28;20414;-71
2022/05/30 11:30:30;;;;;;;0.30;0.30;;;18.20;44.50;;;;;;5033860;28;20445;-71
2022/05/30 11:33:14;;;;;;;0.30;0.30;;;18.30;43.40;;;;;;5033751;28;20394;-70
2022/05/30 11:36:17;;;;;;;0.30;0.30;;;18.10;44.90;;;;;;5033816;28;20405;-71
2022/05/30 11:38:50;;;;;;;0.40;0.40;;;18.20;47.00;;;;;;5032266;28;20411;-70
2022/05/30 11:41:49;;;;;;;0.40;0.40;;;18.50;45.10;;;;;;5033719;28;20489;-71
2022/05/30 11:44:32;;;;;;;0.33;0.33;;;19.10;44.20;;;;;;5033500;28;20400;-69
2022/05/30 11:47:24;;;;;;;0.30;0.30;;;19.20;45.10;;;;;;5033985;28;20402;-69
2022/05/30 11:49:50;;;;;;;0.30;0.30;;;19.20;46.10;;;;;;5032271;28;20765;-70
2022/05/30 11:52:29;;;;;;;0.30;0.30;;;18.90;45.40;;;;;;5033592;28;20403;-70
2022/05/30 11:55:10;;;;;;;0.30;0.30;;;18.90;44.50;;;;;;5040009;28;20172;-71
2022/05/30 11:57:53;;;;;;;0.30;0.30;;;18.60;45.20;;;;;;5040036;28;20405;-70
2022/05/30 12:00:41;;;;;;;0.30;0.30;;;18.90;45.20;;;;;;5039929;28;20444;-70
2022/05/30 12:03:36;;;;;;;0.70;0.70;;;19.10;45.90;;;;;;5039904;28;20778;-70
2022/05/30 12:06:28;;;;;;;0.40;0.40;;;18.90;42.60;;;;;;5040130;28;20451;-70
2022/05/30 12:09:09;;;;;;;0.47;0.47;;;18.90;43.90;;;;;;5031581;28;20415;-71
2022/05/30 12:11:45;;;;;;;0.30;0.30;;;18.90;45.20;;;;;;5039917;28;20419;-71
2022/05/30 12:14:32;;;;;;;0.30;0.30;;;18.80;46.20;;;;;;5039742;28;20395;-70
2022/05/30 12:17:15;;;;;;;0.30;0.30;;;19.00;44.30;;;;;;5039866;28;20396;-70
2022/05/30 12:25:35;;;;;;;0.40;0.40;;;19.20;39.10;;;;;;5039884;28;20588;-71
2022/05/30 12:28:24;;;;;;;0.40;0.40;;;19.40;42.50;;;;;;5039877;28;20410;-69
2022/05/30 12:30:58;;;;;;;0.30;0.30;;;19.40;41.20;;;;;;5039440;28;20576;-71
2022/05/30 12:33:27;;;;;;;0.30;0.30;;;19.10;42.40;;;;;;5038396;28;20850;-71
2022/05/30 12:36:08;;;;;;;0.37;0.37;;;19.40;43.50;;;;;;5039754;28;20488;-71
2022/05/30 12:39:02;;;;;;;0.30;0.30;;;19.70;40.80;;;;;;5039818;28;20767;-71
2022/05/30 12:41:54;;;;;;;0.30;0.30;;;19.80;39.50;;;;;;5039541;28;20428;-71
2022/05/30 12:44:47;;;;;;;0.30;0.30;;;19.50;39.70;;;;;;5039481;28;20499;-71
2022/05/30 12:47:46;;;;;;;0.30;0.30;;;19.20;41.80;;;;;;5039575;28;20412;-70
2022/05/30 12:50:38;;;;;;;0.30;0.30;;;18.40;41.30;;;;;;5039691;28;20436;-70
2022/05/30 12:53:05;;;;;;;0.30;0.30;;;18.40;42.80;;;;;;5039515;28;20496;-69
2022/05/30 12:55:46;;;;;;;0.30;0.30;;;18.40;44.10;;;;;;5039599;28;20399;-70
2022/05/30 12:58:42;;;;;;;0.30;0.30;;;18.30;42.90;;;;;;5039423;28;20397;-71
2022/05/30 13:01:23;;;;;;;0.30;0.30;;;18.30;44.60;;;;;;5039374;28;20429;-71
2022/05/30 13:04:07;;;;;;;0.30;0.30;;;18.90;43.40;;;;;;5039071;28;20443;-69
2022/05/30 13:06:53;;;;;;;0.50;0.50;;;19.20;43.50;;;;;;5036256;28;20459;-71
2022/05/30 13:09:21;;;;;;;0.30;0.30;;;19.50;44.40;;;;;;5036482;28;20761;-70
2022/05/30 13:12:02;;;;;;;0.30;0.30;;;19.60;41.30;;;;;;5036231;28;20434;-70
2022/05/30 13:14:40;;;;;;;0.30;0.30;;;19.70;39.70;;;;;;5036330;28;20495;-70
2022/05/30 13:17:24;;;;;;;0.40;0.40;;;19.80;40.30;;;;;;5036333;28;20439;-69
2022/05/30 13:20:09;;;;;;;0.30;0.30;;;19.30;38.60;;;;;;5035897;28;20495;-69
2022/05/30 13:22:54;;;;;;;0.30;0.30;;;19.20;40.90;;;;;;5035851;28;20386;-70
2022/05/30 13:25:31;;;;;;;0.30;0.30;;;19.30;41.50;;;;;;5035758;28;20810;-70
2022/05/30 13:28:13;;;;;;;0.30;0.30;;;19.70;41.90;;;;;;5034786;28;20483;-69
2022/05/30 13:30:39;;;;;;;0.30;0.30;;;20.00;40.40;;;;;;5036013;28;20432;-71
2022/05/30 13:33:28;;;;;;;0.30;0.30;;;20.00;41.20;;;;;;5034446;28;20498;-71
2022/05/30 13:36:05;;;;;;;0.50;0.50;;;19.40;40.70;;;;;;5034397;28;20417;-69